createdAt,value
2023-05-17T00:00:09.915Z,7.29
2023-05-17T00:02:37.592Z,7.03
2023-05-17T00:05:06.613Z,7.15
2023-05-17T00:07:34.166Z,7.10
2023-05-17T00:10:03.092Z,7.09
2023-05-17T00:12:30.639Z,7.01
2023-05-17T00:14:58.229Z,7.02
2023-05-17T00:17:25.978Z,6.98
2023-05-17T00:19:53.621Z,6.88
2023-05-17T00:22:21.427Z,6.86
2023-05-17T00:24:49.039Z,6.81
2023-05-17T00:27:17.996Z,6.76
2023-05-17T00:29:45.524Z,6.64
2023-05-17T00:32:13.098Z,6.70
2023-05-17T00:34:40.681Z,6.62
2023-05-17T00:37:08.301Z,6.64
2023-05-17T00:39:36.030Z,6.63
2023-05-17T00:42:03.969Z,6.64
2023-05-17T00:44:32.929Z,6.40
2023-05-17T00:47:00.917Z,6.55
2023-05-17T00:49:28.519Z,6.53
2023-05-17T00:51:56.357Z,6.47
2023-05-17T00:54:23.965Z,6.44
2023-05-17T00:56:51.527Z,6.42
2023-05-17T00:59:19.285Z,6.41
2023-05-17T01:01:48.682Z,6.42
2023-05-17T01:04:16.349Z,6.42
2023-05-17T01:06:43.989Z,6.39
2023-05-17T01:09:11.634Z,6.37
2023-05-17T01:11:43.914Z,6.37
2023-05-17T01:14:22.405Z,6.35
2023-05-17T01:16:57.393Z,6.23
2023-05-17T01:19:41.691Z,6.33
2023-05-17T01:22:17.140Z,6.31
2023-05-17T01:24:52.256Z,6.37
2023-05-17T01:27:22.007Z,6.38
2023-05-17T01:29:50.695Z,6.37
2023-05-17T01:32:19.096Z,6.33
2023-05-17T01:34:46.783Z,6.29
2023-05-17T01:37:14.352Z,6.33
2023-05-17T01:39:42.466Z,6.33
2023-05-17T01:42:15.490Z,6.28
2023-05-17T01:44:50.467Z,6.22
2023-05-17T01:47:22.333Z,6.25
2023-05-17T01:49:54.456Z,6.21
2023-05-17T01:52:27.048Z,6.19
2023-05-17T01:54:57.605Z,6.16
2023-05-17T01:57:29.919Z,6.13
2023-05-17T02:00:01.171Z,6.10
2023-05-17T02:02:28.934Z,6.15
2023-05-17T02:04:56.548Z,6.13
2023-05-17T02:07:24.159Z,6.08
2023-05-17T02:09:52.012Z,6.12
2023-05-17T02:12:19.581Z,6.07
2023-05-17T02:14:47.251Z,6.06
2023-05-17T02:17:16.681Z,6.00
2023-05-17T02:19:44.373Z,6.01
2023-05-17T02:22:11.969Z,6.00
2023-05-17T02:24:39.556Z,5.94
2023-05-17T02:27:07.133Z,5.95
2023-05-17T02:29:36.040Z,5.90
2023-05-17T02:32:03.654Z,5.86
2023-05-17T02:34:32.649Z,5.80
2023-05-17T02:37:00.217Z,5.80
2023-05-17T02:39:27.798Z,5.78
2023-05-17T02:41:55.353Z,5.77
2023-05-17T02:44:22.894Z,5.76
2023-05-17T02:46:50.481Z,5.69
2023-05-17T02:49:18.150Z,5.72
2023-05-17T02:51:47.074Z,5.66
2023-05-17T02:54:14.687Z,5.67
2023-05-17T02:56:42.208Z,5.67
2023-05-17T02:59:09.758Z,5.67
2023-05-17T03:01:37.309Z,5.65
2023-05-17T03:04:05.119Z,5.54
2023-05-17T03:06:34.590Z,5.43
2023-05-17T03:09:03.534Z,5.60
2023-05-17T03:11:31.784Z,5.55
2023-05-17T03:13:59.352Z,5.56
2023-05-17T03:16:26.914Z,5.54
2023-05-17T03:18:54.603Z,5.48
2023-05-17T03:21:22.518Z,5.50
2023-05-17T03:23:50.066Z,5.47
2023-05-17T03:26:19.788Z,5.43
2023-05-17T03:28:47.463Z,5.42
2023-05-17T03:31:15.073Z,5.42
2023-05-17T03:33:42.689Z,5.45
2023-05-17T03:36:10.455Z,5.42
2023-05-17T03:38:38.015Z,5.42
2023-05-17T03:41:05.852Z,5.38
2023-05-17T03:43:34.935Z,5.35
2023-05-17T03:46:02.578Z,5.33
2023-05-17T03:48:30.284Z,5.35
2023-05-17T03:50:57.982Z,5.36
2023-05-17T03:53:25.552Z,5.32
2023-05-17T03:55:53.187Z,5.32
2023-05-17T03:58:20.818Z,5.31
2023-05-17T04:00:50.849Z,5.32
2023-05-17T04:03:20.022Z,5.22
2023-05-17T04:05:47.962Z,5.26
2023-05-17T04:08:15.596Z,5.34
2023-05-17T04:10:43.239Z,5.29
2023-05-17T04:13:10.833Z,5.33
2023-05-17T04:15:38.389Z,5.33
2023-05-17T04:18:07.877Z,5.34
2023-05-17T04:20:35.710Z,5.31
2023-05-17T04:23:03.477Z,5.31
2023-05-17T04:25:31.264Z,5.31
2023-05-17T04:27:58.858Z,5.33
2023-05-17T04:30:26.549Z,5.33
2023-05-17T04:32:54.221Z,5.33
2023-05-17T04:35:23.180Z,5.33
2023-05-17T04:37:50.811Z,5.31
2023-05-17T04:40:18.565Z,5.33
2023-05-17T04:42:46.156Z,5.13
2023-05-17T04:45:15.510Z,5.35
2023-05-17T04:47:43.823Z,5.36
2023-05-17T04:50:11.670Z,5.43
2023-05-17T04:52:40.624Z,5.42
2023-05-17T04:55:08.777Z,5.51
2023-05-17T04:57:36.590Z,5.55
2023-05-17T05:00:06.769Z,5.46
2023-05-17T05:02:34.629Z,5.60
2023-05-17T05:05:02.299Z,5.69
2023-05-17T05:07:30.116Z,5.74
2023-05-17T05:09:59.050Z,5.82
2023-05-17T05:12:26.606Z,5.88
2023-05-17T05:14:54.858Z,5.91
2023-05-17T05:17:22.456Z,6.12
2023-05-17T05:19:50.444Z,6.22
2023-05-17T05:22:18.111Z,6.39
2023-05-17T05:24:45.672Z,6.43
2023-05-17T05:27:14.579Z,6.43
2023-05-17T05:29:43.157Z,6.43
2023-05-17T05:32:11.895Z,6.61
2023-05-17T05:34:39.568Z,6.65
2023-05-17T05:37:07.200Z,6.61
2023-05-17T05:39:37.031Z,6.62
2023-05-17T05:42:05.164Z,6.77
2023-05-17T05:44:34.042Z,6.83
2023-05-17T05:47:01.786Z,6.81
2023-05-17T05:49:29.529Z,6.92
2023-05-17T05:51:57.186Z,7.15
2023-05-17T05:54:24.864Z,7.44
2023-05-17T05:56:52.484Z,7.46
2023-05-17T05:59:20.068Z,7.72
2023-05-17T06:01:49.036Z,8.11
2023-05-17T06:04:16.685Z,8.02
2023-05-17T06:06:44.359Z,8.25
2023-05-17T06:09:12.316Z,8.44
2023-05-17T06:11:40.050Z,8.64
2023-05-17T06:14:08.278Z,8.70
2023-05-17T06:16:35.910Z,8.56
2023-05-17T06:19:05.264Z,8.77
2023-05-17T06:21:33.159Z,8.78
2023-05-17T06:24:02.226Z,8.79
2023-05-17T06:26:31.533Z,8.77
2023-05-17T06:28:59.168Z,8.54
2023-05-17T06:31:26.987Z,8.71
2023-05-17T06:33:54.614Z,8.62
2023-05-17T06:36:24.952Z,8.76
2023-05-17T06:38:53.009Z,8.87
2023-05-17T06:41:20.938Z,8.69
2023-05-17T06:43:48.514Z,8.71
2023-05-17T06:46:16.143Z,8.72
2023-05-17T06:48:43.869Z,8.70
2023-05-17T06:51:12.789Z,8.85
2023-05-17T06:53:41.712Z,9.02
2023-05-17T06:56:09.420Z,9.29
2023-05-17T06:58:37.157Z,9.29
2023-05-17T07:01:04.850Z,9.29
2023-05-17T07:03:32.617Z,9.12
2023-05-17T07:06:00.903Z,9.07
2023-05-17T07:08:28.602Z,9.29
2023-05-17T07:10:57.508Z,9.14
2023-05-17T07:13:25.138Z,9.21
2023-05-17T07:15:52.794Z,9.18
2023-05-17T07:18:20.635Z,9.11
2023-05-17T07:20:48.360Z,9.20
2023-05-17T07:23:16.122Z,9.45
2023-05-17T07:25:43.750Z,9.56
2023-05-17T07:28:12.707Z,9.58
2023-05-17T07:30:40.357Z,9.59
2023-05-17T07:33:08.066Z,9.58
2023-05-17T07:35:35.819Z,9.68
2023-05-17T07:38:04.451Z,9.29
2023-05-17T07:40:32.119Z,9.54
2023-05-17T07:43:00.008Z,9.71
2023-05-17T07:45:29.702Z,9.85
2023-05-17T07:47:57.912Z,10.16
2023-05-17T07:50:25.913Z,9.96
2023-05-17T07:52:53.571Z,10.14
2023-05-17T07:55:21.624Z,9.84
2023-05-17T07:57:49.215Z,9.65
2023-05-17T08:00:19.249Z,9.69
2023-05-17T08:02:48.626Z,9.64
2023-05-17T08:05:16.556Z,9.94
2023-05-17T08:07:44.298Z,10.22
2023-05-17T08:10:12.284Z,10.16
2023-05-17T08:12:39.845Z,10.08
2023-05-17T08:15:08.480Z,10.23
2023-05-17T08:17:36.203Z,10.28
2023-05-17T08:20:06.156Z,10.40
2023-05-17T08:22:33.943Z,10.66
2023-05-17T08:25:01.520Z,10.71
2023-05-17T08:27:31.038Z,10.60
2023-05-17T08:29:59.759Z,10.88
2023-05-17T08:32:27.429Z,11.04
2023-05-17T08:34:55.884Z,11.09
2023-05-17T08:37:24.950Z,11.21
2023-05-17T08:39:52.738Z,11.34
2023-05-17T08:42:24.590Z,11.21
2023-05-17T08:44:52.842Z,11.16
2023-05-17T08:47:29.965Z,11.02
2023-05-17T08:50:00.962Z,10.99
2023-05-17T08:52:32.331Z,10.79
2023-05-17T08:55:01.020Z,10.86
2023-05-17T08:57:30.172Z,10.47
2023-05-17T08:59:59.789Z,10.47
2023-05-17T09:02:28.084Z,10.94
2023-05-17T09:04:56.526Z,11.18
2023-05-17T09:07:24.328Z,11.04
2023-05-17T09:09:54.358Z,11.10
2023-05-17T09:12:24.205Z,10.95
2023-05-17T09:14:53.423Z,10.96
2023-05-17T09:17:22.273Z,11.10
2023-05-17T09:19:50.451Z,11.05
2023-05-17T09:22:19.478Z,10.95
2023-05-17T09:24:47.154Z,10.98
2023-05-17T09:27:18.894Z,11.05
2023-05-17T09:29:47.603Z,11.19
2023-05-17T09:32:15.904Z,11.43
2023-05-17T09:34:43.980Z,11.79
2023-05-17T09:37:15.964Z,12.10
2023-05-17T09:39:44.797Z,12.05
2023-05-17T09:42:12.707Z,12.11
2023-05-17T09:44:53.143Z,12.28
2023-05-17T09:47:24.991Z,12.22
2023-05-17T09:49:52.724Z,12.30
2023-05-17T09:52:21.277Z,12.78
2023-05-17T09:54:56.316Z,12.81
2023-05-17T09:57:24.312Z,12.81
2023-05-17T09:59:56.776Z,12.97
2023-05-17T10:02:28.836Z,12.64
2023-05-17T10:04:58.262Z,12.67
2023-05-17T10:07:27.838Z,12.76
2023-05-17T10:09:56.577Z,12.63
2023-05-17T10:12:25.628Z,12.62
2023-05-17T10:14:57.004Z,12.93
2023-05-17T10:17:25.241Z,12.96
2023-05-17T10:19:53.824Z,13.14
2023-05-17T10:22:23.876Z,13.08
2023-05-17T10:24:52.393Z,12.69
2023-05-17T10:27:20.114Z,12.98
2023-05-17T10:29:50.555Z,13.04
2023-05-17T10:32:23.185Z,13.11
2023-05-17T10:35:05.932Z,12.89
2023-05-17T10:37:38.835Z,13.03
2023-05-17T10:40:13.222Z,13.62
2023-05-17T10:42:42.391Z,13.67
2023-05-17T10:45:10.756Z,13.39
2023-05-17T10:47:41.360Z,13.17
2023-05-17T10:50:13.353Z,12.98
2023-05-17T10:52:47.469Z,12.83
2023-05-17T10:55:15.148Z,12.86
2023-05-17T10:57:50.730Z,13.08
2023-05-17T11:00:21.393Z,13.41
2023-05-17T11:02:51.086Z,13.55
2023-05-17T11:05:25.608Z,13.76
2023-05-17T11:07:53.336Z,13.42
2023-05-17T11:10:20.939Z,13.35
2023-05-17T11:12:54.002Z,13.56
2023-05-17T11:15:24.846Z,13.70
2023-05-17T11:17:54.817Z,14.41
2023-05-17T11:20:33.704Z,14.66
2023-05-17T11:23:02.918Z,14.18
2023-05-17T11:25:32.414Z,14.15
2023-05-17T11:28:00.576Z,14.27
2023-05-17T11:30:30.668Z,14.56
2023-05-17T11:33:01.906Z,14.62
2023-05-17T11:35:31.312Z,14.28
2023-05-17T11:38:15.495Z,13.72
2023-05-17T11:40:43.771Z,13.56
2023-05-17T11:43:12.906Z,13.15
2023-05-17T11:45:43.223Z,13.39
2023-05-17T11:48:13.139Z,13.08
2023-05-17T11:50:41.089Z,13.59
2023-05-17T11:53:10.049Z,13.94
2023-05-17T11:55:39.917Z,14.26
2023-05-17T11:58:09.178Z,14.53
2023-05-17T12:00:37.430Z,14.43
2023-05-17T12:03:22.338Z,14.66
2023-05-17T12:05:51.466Z,14.86
2023-05-17T12:08:20.270Z,14.79
2023-05-17T12:10:49.501Z,14.72
2023-05-17T12:13:17.186Z,14.50
2023-05-17T12:15:47.335Z,14.12
2023-05-17T12:18:15.121Z,14.50
2023-05-17T12:20:56.131Z,14.26
2023-05-17T12:23:30.980Z,14.26
2023-05-17T12:26:07.073Z,14.34
2023-05-17T12:28:35.344Z,14.84
2023-05-17T12:31:03.800Z,15.85
2023-05-17T12:33:33.059Z,16.56
2023-05-17T12:36:03.206Z,16.96
2023-05-17T12:38:33.209Z,15.71
2023-05-17T12:41:02.664Z,15.28
2023-05-17T12:43:31.699Z,14.94
2023-05-17T12:46:07.316Z,15.02
2023-05-17T12:48:36.150Z,15.70
2023-05-17T12:51:11.722Z,16.48
2023-05-17T12:53:40.525Z,16.64
2023-05-17T12:56:09.033Z,16.99
2023-05-17T12:58:36.760Z,16.82
2023-05-17T13:01:07.077Z,17.33
2023-05-17T13:03:35.470Z,17.64
2023-05-17T13:06:05.661Z,17.67
2023-05-17T13:08:34.938Z,18.28
2023-05-17T13:11:10.039Z,19.04
2023-05-17T13:13:37.832Z,18.93
2023-05-17T13:16:05.935Z,18.79
2023-05-17T13:18:48.411Z,17.76
2023-05-17T13:21:16.197Z,18.03
2023-05-17T13:23:45.514Z,17.87
2023-05-17T13:26:13.830Z,17.40
2023-05-17T13:28:41.745Z,17.18
2023-05-17T13:31:09.366Z,17.28
2023-05-17T13:33:37.033Z,16.54
2023-05-17T13:36:05.054Z,16.40
2023-05-17T13:38:32.794Z,15.49
2023-05-17T13:41:01.687Z,14.93
2023-05-17T13:43:29.306Z,14.27
2023-05-17T13:45:58.943Z,14.85
2023-05-17T13:48:26.694Z,16.58
2023-05-17T13:50:54.444Z,17.04
2023-05-17T13:53:22.072Z,17.24
2023-05-17T13:55:49.782Z,16.89
2023-05-17T13:58:18.719Z,15.60
2023-05-17T14:00:46.812Z,15.59
2023-05-17T14:03:14.744Z,15.39
2023-05-17T14:05:42.619Z,16.62
2023-05-17T14:08:10.216Z,17.30
2023-05-17T14:10:37.784Z,17.20
2023-05-17T14:13:05.387Z,18.41
2023-05-17T14:15:37.969Z,19.51
2023-05-17T14:18:06.278Z,19.45
2023-05-17T14:20:34.575Z,18.02
2023-05-17T14:23:02.373Z,17.30
2023-05-17T14:25:30.089Z,17.53
2023-05-17T14:27:57.690Z,17.44
2023-05-17T14:30:25.707Z,17.13
2023-05-17T14:32:54.661Z,16.63
2023-05-17T14:35:22.285Z,16.34
2023-05-17T14:37:49.849Z,15.34
2023-05-17T14:40:17.605Z,15.27
2023-05-17T14:42:45.165Z,14.65
2023-05-17T14:45:12.767Z,14.43
2023-05-17T14:47:40.414Z,14.10
2023-05-17T14:50:10.652Z,13.88
2023-05-17T14:52:38.312Z,13.74
2023-05-17T14:55:06.947Z,13.70
2023-05-17T14:57:34.636Z,13.73
2023-05-17T15:00:03.066Z,13.54
2023-05-17T15:02:30.779Z,13.33
2023-05-17T15:04:58.453Z,13.25
2023-05-17T15:07:27.589Z,13.02
2023-05-17T15:09:55.234Z,13.30
2023-05-17T15:12:22.883Z,13.49
2023-05-17T15:14:50.510Z,13.62
2023-05-17T15:17:18.422Z,13.73
2023-05-17T15:19:46.452Z,13.43
2023-05-17T15:22:14.279Z,13.09
2023-05-17T15:24:44.002Z,12.73
2023-05-17T15:27:15.564Z,12.62
2023-05-17T15:29:43.289Z,12.45
2023-05-17T15:32:11.297Z,12.53
2023-05-17T15:34:38.905Z,12.38
2023-05-17T15:37:06.758Z,12.51
2023-05-17T15:39:34.353Z,12.47
2023-05-17T15:42:03.266Z,12.30
2023-05-17T15:44:31.068Z,12.23
2023-05-17T15:47:00.816Z,11.91
2023-05-17T15:49:30.062Z,11.86
2023-05-17T15:51:57.742Z,11.62
2023-05-17T15:54:25.453Z,11.76
2023-05-17T15:56:53.016Z,11.55
2023-05-17T15:59:22.010Z,11.58
2023-05-17T16:01:49.728Z,11.71
2023-05-17T16:04:17.466Z,11.91
2023-05-17T16:06:45.211Z,11.90
2023-05-17T16:09:14.357Z,11.93
2023-05-17T16:11:41.995Z,11.74
2023-05-17T16:14:09.743Z,11.80
2023-05-17T16:16:38.695Z,11.76
2023-05-17T16:19:06.588Z,11.76
2023-05-17T16:21:35.552Z,11.75
2023-05-17T16:24:04.150Z,11.78
2023-05-17T16:26:32.172Z,12.00
2023-05-17T16:29:00.729Z,11.95
2023-05-17T16:31:28.641Z,11.94
2023-05-17T16:33:57.568Z,11.96
2023-05-17T16:36:25.389Z,12.11
2023-05-17T16:38:53.048Z,12.13
2023-05-17T16:41:21.774Z,12.20
2023-05-17T16:43:49.288Z,12.19
2023-05-17T16:46:18.963Z,12.21
2023-05-17T16:48:46.622Z,12.19
2023-05-17T16:51:15.589Z,12.22
2023-05-17T16:53:43.144Z,12.20
2023-05-17T16:56:10.689Z,12.10
2023-05-17T16:58:38.559Z,12.10
2023-05-17T17:01:06.360Z,11.96
2023-05-17T17:03:34.092Z,11.90
2023-05-17T17:06:01.676Z,11.77
2023-05-17T17:08:30.648Z,11.68
2023-05-17T17:10:58.302Z,11.66
2023-05-17T17:13:26.531Z,11.53
2023-05-17T17:15:54.699Z,11.38
2023-05-17T17:18:22.354Z,11.24
2023-05-17T17:20:49.930Z,11.27
2023-05-17T17:23:17.482Z,11.21
2023-05-17T17:25:46.420Z,11.23
2023-05-17T17:28:14.196Z,11.33
2023-05-17T17:30:41.886Z,11.27
2023-05-17T17:33:09.695Z,11.26
2023-05-17T17:35:37.303Z,11.29
2023-05-17T17:38:04.896Z,11.19
2023-05-17T17:40:32.664Z,11.21
2023-05-17T17:43:01.837Z,11.19
2023-05-17T17:45:29.433Z,11.12
2023-05-17T17:47:57.048Z,10.89
2023-05-17T17:50:24.590Z,11.03
2023-05-17T17:52:52.150Z,10.98
2023-05-17T17:55:19.746Z,10.86
2023-05-17T17:57:47.317Z,10.85
2023-05-17T18:00:16.996Z,10.77
2023-05-17T18:02:44.696Z,10.78
2023-05-17T18:05:12.664Z,10.75
2023-05-17T18:07:40.254Z,10.70
2023-05-17T18:10:08.642Z,10.67
2023-05-17T18:12:36.231Z,10.63
2023-05-17T18:15:03.871Z,10.55
2023-05-17T18:17:32.819Z,10.55
2023-05-17T18:20:00.525Z,10.52
2023-05-17T18:22:28.135Z,10.51
2023-05-17T18:24:55.868Z,10.40
2023-05-17T18:27:23.421Z,10.34
2023-05-17T18:29:51.014Z,10.28
2023-05-17T18:32:18.816Z,10.18
2023-05-17T18:34:47.728Z,10.22
2023-05-17T18:37:15.353Z,10.17
2023-05-17T18:39:42.972Z,10.11
2023-05-17T18:42:10.562Z,10.09
2023-05-17T18:44:38.121Z,9.97
2023-05-17T18:47:06.438Z,9.91
2023-05-17T18:49:34.032Z,9.78
2023-05-17T18:52:03.024Z,9.63
2023-05-17T18:54:30.608Z,9.59
2023-05-17T18:56:58.188Z,9.51
2023-05-17T18:59:25.826Z,9.37
2023-05-17T19:01:53.404Z,9.31
2023-05-17T19:04:21.047Z,9.28
2023-05-17T19:06:48.632Z,9.22
2023-05-17T19:09:17.695Z,9.11
2023-05-17T19:11:45.522Z,8.98
2023-05-17T19:14:14.647Z,8.88
2023-05-17T19:16:42.290Z,8.77
2023-05-17T19:19:09.984Z,8.73
2023-05-17T19:21:37.632Z,8.63
2023-05-17T19:24:06.022Z,8.51
2023-05-17T19:26:34.885Z,8.40
2023-05-17T19:29:02.538Z,8.09
2023-05-17T19:31:30.131Z,8.28
2023-05-17T19:33:59.245Z,8.03
2023-05-17T19:36:26.885Z,8.18
2023-05-17T19:38:54.640Z,8.11
2023-05-17T19:41:22.537Z,8.13
2023-05-17T19:43:51.398Z,8.10
2023-05-17T19:46:19.038Z,8.04
2023-05-17T19:48:46.864Z,7.96
2023-05-17T19:51:14.450Z,7.93
2023-05-17T19:53:52.311Z,7.88
2023-05-17T19:56:21.452Z,7.79
2023-05-17T19:58:49.213Z,7.79
2023-05-17T20:01:18.134Z,7.70
2023-05-17T20:03:46.141Z,7.60
2023-05-17T20:06:14.885Z,7.32
2023-05-17T20:08:42.885Z,7.49
2023-05-17T20:11:10.879Z,7.41
2023-05-17T20:13:40.233Z,7.36
2023-05-17T20:16:12.370Z,7.14
2023-05-17T20:18:43.544Z,7.27
2023-05-17T20:21:12.500Z,7.15
2023-05-17T20:23:40.960Z,7.09
2023-05-17T20:26:08.523Z,6.86
2023-05-17T20:28:36.099Z,7.01
2023-05-17T20:31:03.645Z,6.91
2023-05-17T20:33:31.235Z,6.90
2023-05-17T20:36:00.149Z,6.86
2023-05-17T20:38:27.747Z,6.75
2023-05-17T20:40:55.458Z,6.76
2023-05-17T20:43:28.687Z,6.62
2023-05-17T20:45:56.459Z,6.63
2023-05-17T20:48:24.195Z,6.63
2023-05-17T20:50:51.717Z,6.58
2023-05-17T20:53:20.620Z,6.54
2023-05-17T20:55:49.246Z,6.52
2023-05-17T20:58:16.846Z,6.23
2023-05-17T21:00:44.447Z,6.36
2023-05-17T21:03:12.077Z,6.32
2023-05-17T21:05:39.720Z,6.35
2023-05-17T21:08:08.210Z,6.27
2023-05-17T21:10:40.554Z,6.30
2023-05-17T21:13:09.251Z,6.24
2023-05-17T21:15:37.184Z,6.18
2023-05-17T21:18:06.652Z,6.21
2023-05-17T21:20:34.277Z,6.21
2023-05-17T21:23:01.855Z,6.21
2023-05-17T21:25:29.724Z,6.18
2023-05-17T21:27:58.750Z,6.12
2023-05-17T21:30:26.454Z,6.08
2023-05-17T21:32:54.125Z,6.04
2023-05-17T21:35:21.825Z,6.00
2023-05-17T21:37:49.436Z,5.96
2023-05-17T21:40:16.978Z,5.89
2023-05-17T21:42:44.522Z,5.82
2023-05-17T21:45:14.749Z,5.80
2023-05-17T21:47:42.461Z,5.74
2023-05-17T21:50:11.676Z,5.77
2023-05-17T21:52:39.416Z,5.72
2023-05-17T21:55:08.578Z,5.72
2023-05-17T21:57:36.755Z,5.72
2023-05-17T22:00:05.973Z,5.63
2023-05-17T22:02:36.008Z,5.60
2023-05-17T22:05:03.753Z,5.54
2023-05-17T22:07:31.316Z,5.50
2023-05-17T22:10:00.248Z,5.47
2023-05-17T22:12:27.873Z,5.21
2023-05-17T22:14:56.681Z,5.37
2023-05-17T22:17:35.175Z,5.32
2023-05-17T22:20:12.566Z,5.29
2023-05-17T22:22:40.135Z,5.25
2023-05-17T22:25:08.969Z,5.22
2023-05-17T22:27:36.522Z,5.19
2023-05-17T22:30:04.207Z,5.14
2023-05-17T22:32:31.998Z,5.13
2023-05-17T22:34:59.537Z,5.10
2023-05-17T22:37:30.318Z,5.08
2023-05-17T22:39:57.874Z,5.07
2023-05-17T22:42:25.476Z,5.10
2023-05-17T22:44:53.060Z,5.04
2023-05-17T22:47:22.896Z,5.01
2023-05-17T22:49:52.346Z,5.01
2023-05-17T22:52:20.092Z,4.76
2023-05-17T22:54:49.009Z,4.92
2023-05-17T22:57:17.045Z,4.86
2023-05-17T22:59:44.661Z,4.87
2023-05-17T23:02:12.694Z,4.86
2023-05-17T23:04:40.576Z,4.83
2023-05-17T23:07:10.023Z,4.76
2023-05-17T23:09:40.329Z,4.72
2023-05-17T23:12:14.015Z,4.67
2023-05-17T23:14:41.773Z,4.72
2023-05-17T23:17:09.855Z,4.74
2023-05-17T23:19:37.437Z,4.81
2023-05-17T23:22:06.414Z,4.78
2023-05-17T23:24:38.362Z,4.75
2023-05-17T23:27:10.137Z,4.66
2023-05-17T23:29:41.353Z,4.73
2023-05-17T23:32:09.122Z,4.71
2023-05-17T23:34:36.697Z,4.69
2023-05-17T23:37:04.302Z,4.61
2023-05-17T23:39:31.833Z,4.52
2023-05-17T23:41:59.399Z,4.48
2023-05-17T23:44:27.023Z,4.51
2023-05-17T23:46:56.296Z,4.43
2023-05-17T23:49:24.028Z,4.47
2023-05-17T23:51:51.740Z,4.30
2023-05-17T23:54:19.970Z,4.47
2023-05-17T23:56:47.585Z,4.52
2023-05-17T23:59:15.348Z,4.54
